Time;durP1;ratioP1;P1;durP2;ratioP2;P2;SDS_P1;SDS_P2;PMS_P1;PMS_P2;Temp;Humidity;BMP_temperature;BMP_pressure;BME280_temperature;BME280_humidity;BME280_pressure;Samples;Min_cycle;Max_cycle;Signal;HPM_P1;HPM_P2
2021/08/05 00:00:17;;;;;;;2.13;1.10;;;;;;;;;;4994213;28;20054;-76
2021/08/05 00:02:42;;;;;;;2.30;1.10;;;;;;;;;;4977712;28;20081;-76
2021/08/05 00:05:08;;;;;;;3.33;1.13;;;;;;;;;;4993816;28;20054;-76
2021/08/05 00:07:34;;;;;;;4.15;1.30;;;;;;;;;;4993597;28;20121;-76
2021/08/05 00:10:01;;;;;;;2.27;1.10;;;;;;;;;;4993375;28;20053;-76
2021/08/05 00:12:26;;;;;;;3.97;1.10;;;;;;;;;;4977142;28;20026;-76
2021/08/05 00:14:51;;;;;;;2.07;0.93;;;;;;;;;;4993813;28;20405;-76
2021/08/05 00:17:17;;;;;;;2.40;1.20;;;;;;;;;;4993566;28;20049;-76
2021/08/05 00:19:42;;;;;;;2.63;1.07;;;;;;;;;;4977290;28;20022;-76
2021/08/05 00:22:07;;;;;;;2.93;1.27;;;;;;;;;;4977527;28;20453;-76
2021/08/05 00:24:33;;;;;;;2.10;1.10;;;;;;;;;;4977244;28;20126;-76
2021/08/05 00:26:58;;;;;;;2.73;1.13;;;;;;;;;;4993201;28;20537;-76
2021/08/05 00:29:24;;;;;;;2.60;1.13;;;;;;;;;;4977138;28;20026;-76
2021/08/05 00:31:49;;;;;;;3.10;1.17;;;;;;;;;;4993398;28;20041;-76
2021/08/05 00:34:14;;;;;;;3.03;1.20;;;;;;;;;;4976936;28;20093;-76
2021/08/05 00:36:40;;;;;;;3.23;1.13;;;;;;;;;;4993553;28;20049;-76
2021/08/05 00:39:05;;;;;;;3.23;1.30;;;;;;;;;;4993225;28;20066;-76
2021/08/05 00:41:30;;;;;;;3.07;1.23;;;;;;;;;;4976873;28;20061;-76
2021/08/05 00:43:58;;;;;;;3.57;1.40;;;;;;;;;;5009691;28;20026;-76
2021/08/05 00:46:23;;;;;;;2.92;1.17;;;;;;;;;;4977373;28;20374;-76
2021/08/05 00:48:48;;;;;;;2.47;1.17;;;;;;;;;;4993096;28;20077;-76
2021/08/05 00:51:14;;;;;;;2.37;1.00;;;;;;;;;;4993221;28;20492;-76
2021/08/05 00:53:42;;;;;;;3.50;1.40;;;;;;;;;;4977096;28;20552;-76
2021/08/05 00:56:07;;;;;;;2.92;1.02;;;;;;;;;;4993124;28;20398;-76
2021/08/05 00:58:32;;;;;;;3.83;1.53;;;;;;;;;;4992822;28;20033;-76
2021/08/05 01:01:00;;;;;;;3.00;1.10;;;;;;;;;;4993137;28;20124;-76
2021/08/05 01:03:27;;;;;;;3.55;1.10;;;;;;;;;;4976846;28;20022;-76
2021/08/05 01:05:55;;;;;;;;;;;;;;;;;;4993507;28;20026;-76
2021/08/05 01:08:24;;;;;;;2.10;0.90;;;;;;;;;;5009123;28;19914;-76
2021/08/05 01:10:52;;;;;;;3.50;1.10;;;;;;;;;;4992688;28;20076;-76
2021/08/05 01:13:23;;;;;;;2.40;1.05;;;;;;;;;;4976393;28;20073;-76
2021/08/05 01:15:48;;;;;;;3.53;1.25;;;;;;;;;;4992785;28;20037;-76
2021/08/05 01:18:17;;;;;;;3.13;1.20;;;;;;;;;;4992776;28;20108;-76
2021/08/05 01:20:43;;;;;;;4.25;1.30;;;;;;;;;;4976845;28;20042;-76
2021/08/05 01:23:32;;;;;;;2.95;1.10;;;;;;;;;;4992270;28;20026;-76
2021/08/05 01:26:05;;;;;;;2.20;1.10;;;;;;;;;;4992575;28;20485;-76
2021/08/05 01:28:31;;;;;;;2.53;1.05;;;;;;;;;;4992489;28;20034;-76
2021/08/05 01:30:57;;;;;;;3.10;1.15;;;;;;;;;;4992647;28;20022;-76
2021/08/05 01:33:22;;;;;;;2.20;1.07;;;;;;;;;;4976174;28;20040;-76
2021/08/05 01:35:51;;;;;;;2.53;1.10;;;;;;;;;;4976503;28;20058;-76
2021/08/05 01:38:17;;;;;;;2.40;1.02;;;;;;;;;;4992338;28;20061;-76
2021/08/05 01:40:42;;;;;;;2.78;1.20;;;;;;;;;;4976389;28;20080;-76
2021/08/05 01:43:08;;;;;;;4.37;1.30;;;;;;;;;;4976019;28;20041;-76
2021/08/05 01:45:33;;;;;;;2.10;1.00;;;;;;;;;;4992355;28;20050;-76
2021/08/05 01:47:58;;;;;;;2.73;1.03;;;;;;;;;;4975893;28;20058;-76
2021/08/05 01:50:24;;;;;;;2.73;1.00;;;;;;;;;;4992358;28;20026;-76
2021/08/05 01:52:49;;;;;;;3.13;1.00;;;;;;;;;;4992123;28;20429;-76
2021/08/05 01:55:14;;;;;;;3.20;1.23;;;;;;;;;;4992413;28;20501;-76
2021/08/05 01:57:40;;;;;;;3.37;1.17;;;;;;;;;;4992226;28;20080;-76
2021/08/05 02:00:06;;;;;;;3.87;1.20;;;;;;;;;;4992367;28;20022;-76
2021/08/05 02:02:31;;;;;;;;;;;;;;;;;;4993498;28;20038;-76
2021/08/05 02:05:17;;;;;;;4.67;1.30;;;;;;;;;;5009177;28;19913;-76
2021/08/05 02:07:45;;;;;;;3.38;1.20;;;;;;;;;;4992032;28;20429;-76
2021/08/05 02:10:27;;;;;;;3.20;1.20;;;;;;;;;;4993261;28;20035;-76
2021/08/05 02:13:04;;;;;;;3.35;1.27;;;;;;;;;;4992066;28;20084;-76
2021/08/05 02:15:31;;;;;;;3.67;1.20;;;;;;;;;;4976339;28;20031;-76
2021/08/05 02:17:56;;;;;;;3.42;1.13;;;;;;;;;;4992200;28;20041;-76
2021/08/05 02:20:21;;;;;;;3.20;1.33;;;;;;;;;;4992607;28;20417;-76
2021/08/05 02:22:47;;;;;;;5.43;1.50;;;;;;;;;;4975589;28;20029;-76
2021/08/05 02:25:13;;;;;;;3.72;1.30;;;;;;;;;;4992058;28;20112;-76
2021/08/05 02:27:42;;;;;;;3.47;1.23;;;;;;;;;;4992179;28;20098;-76
2021/08/05 02:30:07;;;;;;;3.30;1.25;;;;;;;;;;4992099;28;20022;-76
2021/08/05 02:32:33;;;;;;;4.13;1.30;;;;;;;;;;4975706;28;20033;-76
2021/08/05 02:35:05;;;;;;;4.57;1.27;;;;;;;;;;4977761;28;20054;-76
2021/08/05 02:37:31;;;;;;;3.58;1.40;;;;;;;;;;4979623;28;20062;-76
2021/08/05 02:39:56;;;;;;;3.87;1.40;;;;;;;;;;4995804;28;20492;-76
2021/08/05 02:42:22;;;;;;;4.33;1.30;;;;;;;;;;4996360;28;20438;-76
2021/08/05 02:44:47;;;;;;;3.53;1.30;;;;;;;;;;4996873;28;20022;-76
2021/08/05 02:47:12;;;;;;;3.97;1.43;;;;;;;;;;4995218;28;20468;-76
2021/08/05 02:49:38;;;;;;;4.47;1.60;;;;;;;;;;4979244;28;20037;-76
2021/08/05 02:52:03;;;;;;;3.83;1.47;;;;;;;;;;4979166;28;20073;-76
2021/08/05 02:54:29;;;;;;;4.10;1.27;;;;;;;;;;4995587;28;20030;-76
2021/08/05 02:56:55;;;;;;;;;;;;;;;;;;4979841;28;20524;-76
2021/08/05 02:59:20;;;;;;;3.47;1.30;;;;;;;;;;5011468;28;19922;-76
2021/08/05 03:04:18;;;;;;;3.15;1.33;;;;;;;;;;5033398;28;20097;-79
2021/08/05 03:06:43;;;;;;;4.80;1.33;;;;;;;;;;5021911;28;20068;-79
2021/08/05 03:09:09;;;;;;;3.93;1.30;;;;;;;;;;5039764;28;20480;-79
2021/08/05 03:11:34;;;;;;;3.43;1.40;;;;;;;;;;5039651;28;20462;-79
2021/08/05 03:13:59;;;;;;;3.63;1.33;;;;;;;;;;5019719;28;20057;-79
2021/08/05 03:16:25;;;;;;;3.43;1.30;;;;;;;;;;5022117;28;20017;-79
2021/08/05 03:18:50;;;;;;;2.47;1.20;;;;;;;;;;5055532;28;20022;-79
2021/08/05 03:21:15;;;;;;;5.97;1.60;;;;;;;;;;5022586;28;20516;-79
2021/08/05 03:23:41;;;;;;;3.57;1.60;;;;;;;;;;5038880;28;20510;-79
2021/08/05 03:26:06;;;;;;;3.00;1.30;;;;;;;;;;5039340;28;20057;-79
2021/08/05 03:28:31;;;;;;;4.20;1.40;;;;;;;;;;5019492;28;20061;-79
2021/08/05 03:30:57;;;;;;;3.63;1.37;;;;;;;;;;5019845;28;20053;-79
2021/08/05 03:33:22;;;;;;;3.80;1.40;;;;;;;;;;5019301;28;20112;-79
2021/08/05 03:35:47;;;;;;;3.97;1.60;;;;;;;;;;5033974;28;20021;-79
2021/08/05 03:38:13;;;;;;;3.70;1.33;;;;;;;;;;5022418;28;20522;-79
2021/08/05 03:40:38;;;;;;;3.83;1.20;;;;;;;;;;5022023;28;20080;-79
2021/08/05 03:43:03;;;;;;;5.17;1.60;;;;;;;;;;5009222;28;20037;-79
2021/08/05 03:45:29;;;;;;;3.10;1.40;;;;;;;;;;5018078;28;20064;-79
2021/08/05 03:47:54;;;;;;;2.93;1.27;;;;;;;;;;5018680;28;20069;-79
2021/08/05 03:50:20;;;;;;;3.47;1.50;;;;;;;;;;5018636;28;20069;-79
2021/08/05 03:52:45;;;;;;;5.50;1.70;;;;;;;;;;5018808;28;20026;-79
2021/08/05 03:55:13;;;;;;;4.57;1.60;;;;;;;;;;5023221;28;20064;-79
2021/08/05 03:57:41;;;;;;;4.22;1.60;;;;;;;;;;5045862;28;20026;-79
2021/08/05 04:00:11;;;;;;;3.97;1.52;;;;;;;;;;5037900;28;20029;-79
2021/08/05 04:02:36;;;;;;;3.25;1.35;;;;;;;;;;5022336;28;20124;-79
2021/08/05 04:05:01;;;;;;;5.10;1.97;;;;;;;;;;5035438;28;20087;-79
2021/08/05 04:07:27;;;;;;;2.97;1.30;;;;;;;;;;5002097;28;20037;-79
2021/08/05 04:09:52;;;;;;;5.00;2.20;;;;;;;;;;5019253;28;20073;-79
2021/08/05 04:12:17;;;;;;;4.10;1.90;;;;;;;;;;5028324;28;20049;-79
2021/08/05 04:14:43;;;;;;;4.67;1.60;;;;;;;;;;5016513;28;20042;-80
2021/08/05 04:17:08;;;;;;;4.90;1.90;;;;;;;;;;5003654;28;20036;-79
2021/08/05 04:19:33;;;;;;;4.57;1.57;;;;;;;;;;5019389;28;20070;-79
2021/08/05 04:21:59;;;;;;;5.50;2.00;;;;;;;;;;5030339;28;20075;-79
2021/08/05 04:24:24;;;;;;;5.20;1.70;;;;;;;;;;5037687;28;20065;-79
2021/08/05 04:26:49;;;;;;;4.83;1.73;;;;;;;;;;5036127;28;20117;-79
2021/08/05 04:29:15;;;;;;;4.50;1.87;;;;;;;;;;5020738;28;20065;-79
2021/08/05 04:31:40;;;;;;;4.70;2.03;;;;;;;;;;5028784;28;20117;-79
2021/08/05 04:34:05;;;;;;;5.20;2.23;;;;;;;;;;5018312;28;20172;-79
2021/08/05 04:36:31;;;;;;;6.63;1.90;;;;;;;;;;5027032;28;20032;-80
2021/08/05 04:38:56;;;;;;;5.27;1.70;;;;;;;;;;5038259;28;20060;-79
2021/08/05 04:41:21;;;;;;;4.27;1.80;;;;;;;;;;5053220;28;20029;-79
2021/08/05 04:43:47;;;;;;;4.97;2.00;;;;;;;;;;5021095;28;20116;-80
2021/08/05 04:46:12;;;;;;;3.80;1.70;;;;;;;;;;5021633;28;20493;-79
2021/08/05 04:48:37;;;;;;;5.37;1.80;;;;;;;;;;5018190;28;20057;-79
2021/08/05 04:51:03;;;;;;;3.87;1.70;;;;;;;;;;5019203;28;20061;-79
2021/08/05 04:53:28;;;;;;;4.73;1.90;;;;;;;;;;5018679;28;20085;-79
2021/08/05 04:55:53;;;;;;;3.73;1.60;;;;;;;;;;5001920;28;20049;-80
2021/08/05 04:58:19;;;;;;;4.27;2.03;;;;;;;;;;5001232;28;20503;-80
2021/08/05 05:00:44;;;;;;;4.30;1.87;;;;;;;;;;5018545;28;20029;-79
2021/08/05 05:03:09;;;;;;;4.33;1.50;;;;;;;;;;5001065;28;20052;-80
2021/08/05 05:05:36;;;;;;;4.73;1.60;;;;;;;;;;5016689;28;20484;-80
2021/08/05 05:08:30;;;;;;;4.57;1.90;;;;;;;;;;5001363;28;20117;-79
2021/08/05 05:10:59;;;;;;;3.58;1.60;;;;;;;;;;5022022;28;20033;-79
2021/08/05 05:13:25;;;;;;;4.30;1.60;;;;;;;;;;5021263;28;20036;-79
2021/08/05 05:15:50;;;;;;;5.15;1.70;;;;;;;;;;5019950;28;20022;-79
2021/08/05 05:18:18;;;;;;;4.60;1.40;;;;;;;;;;5017215;28;20068;-78
2021/08/05 05:20:43;;;;;;;4.00;1.67;;;;;;;;;;5016801;28;20026;-79
2021/08/05 05:23:08;;;;;;;4.60;1.90;;;;;;;;;;5023468;28;20029;-79
2021/08/05 05:25:34;;;;;;;3.70;1.60;;;;;;;;;;5037003;28;20056;-78
2021/08/05 05:27:59;;;;;;;4.07;1.70;;;;;;;;;;5038003;28;20025;-78
2021/08/05 05:30:25;;;;;;;5.10;1.57;;;;;;;;;;5042481;28;20037;-77
2021/08/05 05:32:50;;;;;;;3.93;1.53;;;;;;;;;;5035636;28;20049;-77
2021/08/05 05:35:16;;;;;;;5.87;1.97;;;;;;;;;;5002600;28;20373;-78
2021/08/05 05:37:42;;;;;;;2.88;1.73;;;;;;;;;;5019442;28;20022;-78
2021/08/05 05:40:08;;;;;;;4.10;1.60;;;;;;;;;;5021133;28;20113;-78
2021/08/05 05:42:34;;;;;;;3.63;1.58;;;;;;;;;;5024744;28;20519;-78
2021/08/05 05:44:59;;;;;;;3.67;1.67;;;;;;;;;;5020147;28;20127;-78
2021/08/05 05:47:24;;;;;;;4.20;1.50;;;;;;;;;;5029494;28;20026;-78
2021/08/05 05:49:50;;;;;;;3.77;1.60;;;;;;;;;;5022928;28;20053;-77
2021/08/05 05:52:15;;;;;;;3.93;1.63;;;;;;;;;;5038037;28;20481;-78
2021/08/05 05:54:40;;;;;;;4.27;1.80;;;;;;;;;;5021672;28;20526;-78
2021/08/05 05:57:06;;;;;;;4.10;1.70;;;;;;;;;;5040277;28;20088;-78
2021/08/05 05:59:31;;;;;;;4.53;1.67;;;;;;;;;;5041191;28;20041;-77
2021/08/05 06:01:57;;;;;;;4.53;1.50;;;;;;;;;;5039009;28;20092;-78
2021/08/05 06:04:22;;;;;;;4.57;1.70;;;;;;;;;;5023022;28;20044;-77
2021/08/05 06:06:47;;;;;;;3.63;1.60;;;;;;;;;;5038303;28;20077;-78
2021/08/05 06:09:12;;;;;;;3.50;1.57;;;;;;;;;;5030832;28;20037;-78
2021/08/05 06:11:38;;;;;;;4.57;1.73;;;;;;;;;;5055238;28;20072;-78
2021/08/05 06:14:03;;;;;;;3.00;1.37;;;;;;;;;;5009693;28;20057;-78
2021/08/05 06:16:28;;;;;;;4.30;1.70;;;;;;;;;;5025301;28;20054;-78
2021/08/05 06:18:54;;;;;;;4.53;1.70;;;;;;;;;;5054597;28;20453;-78
2021/08/05 06:21:19;;;;;;;4.00;1.47;;;;;;;;;;5044521;28;20029;-78
2021/08/05 06:23:45;;;;;;;4.50;1.63;;;;;;;;;;5021709;28;20113;-77
2021/08/05 06:26:10;;;;;;;4.07;1.40;;;;;;;;;;5038965;28;20029;-78
2021/08/05 06:28:35;;;;;;;2.63;1.27;;;;;;;;;;5045315;28;20033;-78
2021/08/05 06:31:01;;;;;;;3.77;1.60;;;;;;;;;;5040259;28;20508;-78
2021/08/05 06:33:26;;;;;;;2.67;1.40;;;;;;;;;;5032222;28;20037;-78
2021/08/05 06:35:52;;;;;;;3.47;1.47;;;;;;;;;;5044668;28;20029;-78
2021/08/05 06:38:17;;;;;;;4.47;1.60;;;;;;;;;;5041595;28;20087;-78
2021/08/05 06:40:42;;;;;;;3.87;1.57;;;;;;;;;;5028344;28;20097;-78
2021/08/05 06:43:08;;;;;;;4.57;1.70;;;;;;;;;;5017826;28;20094;-78
2021/08/05 06:45:33;;;;;;;4.50;1.77;;;;;;;;;;5042213;28;20032;-78
2021/08/05 06:47:59;;;;;;;3.23;1.43;;;;;;;;;;5023367;28;20112;-78
2021/08/05 06:50:24;;;;;;;3.37;1.40;;;;;;;;;;5032099;28;20104;-78
2021/08/05 06:52:51;;;;;;;3.57;1.37;;;;;;;;;;5025028;28;20061;-78
2021/08/05 06:55:16;;;;;;;3.28;1.35;;;;;;;;;;5023338;28;20097;-77
2021/08/05 06:57:41;;;;;;;3.43;1.50;;;;;;;;;;5009617;28;20057;-78
2021/08/05 07:00:07;;;;;;;3.80;1.50;;;;;;;;;;5040344;28;20392;-78
2021/08/05 07:02:32;;;;;;;3.33;1.40;;;;;;;;;;5039058;28;20021;-77
2021/08/05 07:05:02;;;;;;;3.30;1.40;;;;;;;;;;5040758;28;20185;-77
2021/08/05 07:07:28;;;;;;;2.25;1.20;;;;;;;;;;5008314;28;20132;-77
2021/08/05 07:09:53;;;;;;;5.90;1.67;;;;;;;;;;5028083;28;20117;-77
2021/08/05 07:12:19;;;;;;;3.50;1.53;;;;;;;;;;5037320;28;20068;-77
2021/08/05 07:14:44;;;;;;;4.33;1.70;;;;;;;;;;5041560;28;20472;-78
2021/08/05 07:17:09;;;;;;;3.20;1.53;;;;;;;;;;5057462;28;20519;-77
2021/08/05 07:19:35;;;;;;;3.37;1.70;;;;;;;;;;5056438;28;20040;-77
2021/08/05 07:22:00;;;;;;;4.90;1.80;;;;;;;;;;5028601;28;20030;-77
2021/08/05 07:24:25;;;;;;;4.90;1.60;;;;;;;;;;5029385;28;20101;-78
2021/08/05 07:26:51;;;;;;;3.10;1.40;;;;;;;;;;5043133;28;20529;-78
2021/08/05 07:29:16;;;;;;;4.70;1.70;;;;;;;;;;5027098;28;20396;-78
2021/08/05 07:31:41;;;;;;;4.63;1.63;;;;;;;;;;5042340;28;20065;-77
2021/08/05 07:34:07;;;;;;;4.40;1.83;;;;;;;;;;5025327;28;20025;-77
2021/08/05 07:36:32;;;;;;;3.20;1.60;;;;;;;;;;5058281;28;20086;-78
2021/08/05 07:38:58;;;;;;;3.77;1.70;;;;;;;;;;5014078;28;20097;-77
2021/08/05 07:41:23;;;;;;;3.73;1.60;;;;;;;;;;5044114;28;20029;-78
2021/08/05 07:43:48;;;;;;;3.50;1.80;;;;;;;;;;5042718;28;20029;-78
2021/08/05 07:46:14;;;;;;;4.67;1.50;;;;;;;;;;5040882;28;20061;-78
2021/08/05 07:48:39;;;;;;;3.20;1.47;;;;;;;;;;5035822;28;20022;-77
2021/08/05 07:51:04;;;;;;;4.33;1.77;;;;;;;;;;5041309;28;20022;-78
2021/08/05 07:53:30;;;;;;;3.80;1.60;;;;;;;;;;5041667;28;20021;-78
2021/08/05 07:55:55;;;;;;;3.03;1.53;;;;;;;;;;5041844;28;20062;-78
2021/08/05 07:58:20;;;;;;;3.97;1.80;;;;;;;;;;5020866;28;20025;-77
2021/08/05 08:00:46;;;;;;;3.60;1.73;;;;;;;;;;5038887;28;20026;-78
2021/08/05 08:03:11;;;;;;;3.83;1.53;;;;;;;;;;5039843;28;20025;-78
2021/08/05 08:05:39;;;;;;;5.40;2.00;;;;;;;;;;5037332;28;20029;-78
2021/08/05 08:08:05;;;;;;;7.53;1.88;;;;;;;;;;5022132;28;20055;-78
2021/08/05 08:10:31;;;;;;;4.45;1.85;;;;;;;;;;5021660;28;20033;-78
2021/08/05 08:12:56;;;;;;;5.53;2.10;;;;;;;;;;5021870;28;20033;-78
2021/08/05 08:15:25;;;;;;;3.13;1.47;;;;;;;;;;5031501;28;20056;-78
2021/08/05 08:17:51;;;;;;;3.97;1.80;;;;;;;;;;5022853;28;20063;-78
2021/08/05 08:20:16;;;;;;;4.07;1.80;;;;;;;;;;5041764;28;20116;-78
2021/08/05 08:22:42;;;;;;;4.27;1.77;;;;;;;;;;5041287;28;20080;-78
2021/08/05 08:25:07;;;;;;;5.27;2.00;;;;;;;;;;5016738;28;20113;-78
2021/08/05 08:27:33;;;;;;;4.32;1.73;;;;;;;;;;5029274;28;20022;-77
2021/08/05 08:29:58;;;;;;;3.80;1.73;;;;;;;;;;5021282;28;20025;-77
2021/08/05 08:32:24;;;;;;;4.50;1.70;;;;;;;;;;5019709;28;20032;-78
2021/08/05 08:34:49;;;;;;;4.70;1.87;;;;;;;;;;5019776;28;20026;-77
2021/08/05 08:37:14;;;;;;;5.50;1.80;;;;;;;;;;5035572;28;20018;-78
2021/08/05 08:39:40;;;;;;;3.33;1.60;;;;;;;;;;5020441;28;20114;-78
2021/08/05 08:42:06;;;;;;;4.50;1.87;;;;;;;;;;5020810;28;20053;-78
2021/08/05 08:44:31;;;;;;;4.03;1.77;;;;;;;;;;5040461;28;20056;-78
2021/08/05 08:46:57;;;;;;;4.43;1.80;;;;;;;;;;5040068;28;20025;-78
2021/08/05 08:49:23;;;;;;;4.43;1.80;;;;;;;;;;5057382;28;20542;-77
2021/08/05 08:51:48;;;;;;;3.90;1.75;;;;;;;;;;5040474;28;20116;-78
2021/08/05 08:54:13;;;;;;;4.53;1.90;;;;;;;;;;5057269;28;20060;-78
2021/08/05 08:56:39;;;;;;;4.50;1.80;;;;;;;;;;5040666;28;20022;-78
2021/08/05 08:59:04;;;;;;;4.00;1.80;;;;;;;;;;5039797;28;20108;-77
2021/08/05 09:01:29;;;;;;;4.40;1.80;;;;;;;;;;5056041;28;20018;-77
2021/08/05 09:03:55;;;;;;;4.03;1.97;;;;;;;;;;5038445;22;20106;-77
2021/08/05 09:06:20;;;;;;;3.17;1.57;;;;;;;;;;4966601;28;20042;-77
2021/08/05 09:08:46;;;;;;;3.80;1.80;;;;;;;;;;4927067;28;20100;-77
2021/08/05 09:11:11;;;;;;;4.43;1.50;;;;;;;;;;4961506;28;20062;-77
2021/08/05 09:13:36;;;;;;;4.87;1.80;;;;;;;;;;4963471;28;20022;-77
2021/08/05 09:16:02;;;;;;;3.23;1.50;;;;;;;;;;4980265;28;20073;-77
2021/08/05 09:18:38;;;;;;;4.03;1.80;;;;;;;;;;4979764;28;20092;-77
2021/08/05 09:21:17;;;;;;;5.03;1.80;;;;;;;;;;4995075;28;20117;-77
2021/08/05 09:23:47;;;;;;;4.20;1.70;;;;;;;;;;4924809;29;20035;-77
2021/08/05 09:26:25;;;;;;;3.72;1.70;;;;;;;;;;4940529;29;20122;-77
2021/08/05 09:29:07;;;;;;;4.00;1.70;;;;;;;;;;4956547;29;20085;-77
2021/08/05 09:31:33;;;;;;;3.70;1.60;;;;;;;;;;4941795;29;20402;-77
2021/08/05 09:34:02;;;;;;;5.55;1.92;;;;;;;;;;4956016;29;20035;-77
2021/08/05 09:36:28;;;;;;;3.78;1.83;;;;;;;;;;4940365;29;20107;-77
2021/08/05 09:38:53;;;;;;;4.10;1.77;;;;;;;;;;4939925;29;20398;-77
2021/08/05 09:41:19;;;;;;;4.90;2.20;;;;;;;;;;4924632;29;20068;-77
2021/08/05 09:43:44;;;;;;;4.17;1.80;;;;;;;;;;4940062;29;20401;-77
2021/08/05 09:46:12;;;;;;;4.07;1.83;;;;;;;;;;4940271;29;20031;-77
2021/08/05 09:48:43;;;;;;;5.28;2.08;;;;;;;;;;4956000;29;20031;-77
2021/08/05 09:51:17;;;;;;;3.83;1.98;;;;;;;;;;4924442;29;20082;-77
2021/08/05 09:54:02;;;;;;;3.65;1.70;;;;;;;;;;4940207;29;20030;-77
2021/08/05 09:56:28;;;;;;;4.80;1.75;;;;;;;;;;4955830;29;20030;-77
2021/08/05 09:59:02;;;;;;;;;;;;;;;;;;4958468;28;20050;-77
2021/08/05 10:01:28;;;;;;;4.05;1.83;;;;;;;;;;4992623;28;19924;-77
2021/08/05 10:03:53;;;;;;;4.30;1.87;;;;;;;;;;4956646;28;20133;-78
2021/08/05 10:06:18;;;;;;;5.90;1.80;;;;;;;;;;4953599;28;20070;-77
2021/08/05 10:08:44;;;;;;;3.80;1.70;;;;;;;;;;4938127;29;20053;-77
2021/08/05 10:11:09;;;;;;;3.60;1.50;;;;;;;;;;4938391;29;20066;-77
2021/08/05 10:13:36;;;;;;;3.33;1.57;;;;;;;;;;4938215;29;20027;-77
2021/08/05 10:16:05;;;;;;;3.60;1.60;;;;;;;;;;4949584;28;20086;-77
2021/08/05 10:18:32;;;;;;;4.72;1.83;;;;;;;;;;4953738;28;20383;-78
2021/08/05 10:20:58;;;;;;;4.75;2.17;;;;;;;;;;4957948;28;20038;-78
2021/08/05 10:23:25;;;;;;;4.28;2.20;;;;;;;;;;4923841;29;20078;-77
2021/08/05 10:25:50;;;;;;;4.45;1.92;;;;;;;;;;4921883;29;20038;-77
2021/08/05 10:28:15;;;;;;;4.47;1.97;;;;;;;;;;4964205;28;20053;-77
2021/08/05 10:30:41;;;;;;;4.43;1.77;;;;;;;;;;4973286;28;20022;-77
2021/08/05 10:33:06;;;;;;;3.70;1.60;;;;;;;;;;4943682;28;20118;-77
2021/08/05 10:35:32;;;;;;;4.27;1.80;;;;;;;;;;4938886;29;20402;-77
2021/08/05 10:37:58;;;;;;;3.70;1.73;;;;;;;;;;4938412;29;20502;-77
2021/08/05 10:40:23;;;;;;;3.93;1.80;;;;;;;;;;4937188;28;20489;-77
2021/08/05 10:42:48;;;;;;;3.07;1.53;;;;;;;;;;4941057;28;20445;-77
2021/08/05 10:45:16;;;;;;;3.37;1.70;;;;;;;;;;4955495;28;20078;-77
2021/08/05 10:47:41;;;;;;;3.67;1.60;;;;;;;;;;4938285;29;20406;-77
2021/08/05 10:50:08;;;;;;;3.47;1.80;;;;;;;;;;4944443;29;20034;-77
2021/08/05 10:52:34;;;;;;;3.83;1.83;;;;;;;;;;4938620;28;20031;-77
2021/08/05 10:54:59;;;;;;;3.77;1.50;;;;;;;;;;4957922;28;20173;-77
2021/08/05 10:57:25;;;;;;;3.50;1.70;;;;;;;;;;4933099;29;20054;-77
2021/08/05 11:00:06;;;;;;;4.28;1.88;;;;;;;;;;4951036;28;20073;-77
2021/08/05 11:02:50;;;;;;;3.83;1.55;;;;;;;;;;4958587;28;20031;-77
2021/08/05 11:05:40;;;;;;;5.32;1.70;;;;;;;;;;4954823;28;20086;-77
2021/08/05 11:08:11;;;;;;;3.88;1.98;;;;;;;;;;4944433;29;20050;-77
2021/08/05 11:10:37;;;;;;;3.58;1.73;;;;;;;;;;4962204;28;20029;-78
2021/08/05 11:13:09;;;;;;;3.88;1.90;;;;;;;;;;4928479;29;20553;-78
2021/08/05 11:15:34;;;;;;;3.55;1.63;;;;;;;;;;4945271;28;20037;-78
2021/08/05 11:18:18;;;;;;;4.40;1.70;;;;;;;;;;4949861;28;20039;-78
2021/08/05 11:20:52;;;;;;;3.50;1.58;;;;;;;;;;4978179;28;20061;-77
2021/08/05 11:23:36;;;;;;;3.75;1.75;;;;;;;;;;4958320;28;20031;-77
2021/08/05 11:26:06;;;;;;;3.53;1.70;;;;;;;;;;4970944;28;20038;-77
2021/08/05 11:28:52;;;;;;;4.47;2.00;;;;;;;;;;4942059;28;20027;-77
2021/08/05 11:31:23;;;;;;;2.72;1.55;;;;;;;;;;4943880;28;20082;-77
2021/08/05 11:33:53;;;;;;;3.63;1.65;;;;;;;;;;4960285;28;20026;-77
2021/08/05 11:36:24;;;;;;;3.60;1.77;;;;;;;;;;4960369;28;20026;-78
2021/08/05 11:39:12;;;;;;;3.15;1.55;;;;;;;;;;4959667;28;20064;-78
2021/08/05 11:41:53;;;;;;;4.32;1.90;;;;;;;;;;4955452;29;20541;-77
2021/08/05 11:44:20;;;;;;;3.58;1.63;;;;;;;;;;4959183;29;20098;-77
2021/08/05 11:46:49;;;;;;;4.78;1.80;;;;;;;;;;4939295;28;20031;-77
2021/08/05 11:49:29;;;;;;;4.10;1.90;;;;;;;;;;4909960;29;20090;-77
2021/08/05 11:51:55;;;;;;;4.50;2.00;;;;;;;;;;4944211;29;20129;-77
2021/08/05 11:54:20;;;;;;;3.67;1.80;;;;;;;;;;4946425;29;20494;-77
2021/08/05 11:57:02;;;;;;;5.10;1.80;;;;;;;;;;4957430;28;20484;-77
2021/08/05 11:59:34;;;;;;;3.72;1.77;;;;;;;;;;4941198;28;20394;-78
2021/08/05 12:02:07;;;;;;;2.40;1.30;;;;;;;;;;4960234;28;20027;-78
2021/08/05 12:04:32;;;;;;;4.38;1.70;;;;;;;;;;4941361;29;20086;-78
2021/08/05 12:07:33;;;;;;;3.63;1.67;;;;;;;;;;4948186;28;20490;-78
2021/08/05 12:09:58;;;;;;;3.47;1.73;;;;;;;;;;4961680;28;20035;-78
2021/08/05 12:12:24;;;;;;;3.67;1.60;;;;;;;;;;4961727;28;20033;-78
2021/08/05 12:14:57;;;;;;;4.25;1.88;;;;;;;;;;4961432;28;20030;-78
2021/08/05 12:17:42;;;;;;;3.50;1.80;;;;;;;;;;4951011;29;20031;-77
2021/08/05 12:20:28;;;;;;;3.17;1.60;;;;;;;;;;4957772;29;20035;-78
2021/08/05 12:22:55;;;;;;;3.97;1.60;;;;;;;;;;4973179;28;20405;-78
2021/08/05 12:25:27;;;;;;;3.50;1.55;;;;;;;;;;4941716;28;20122;-77
2021/08/05 12:27:58;;;;;;;4.68;1.63;;;;;;;;;;4960221;28;20513;-78
2021/08/05 12:30:40;;;;;;;3.78;1.85;;;;;;;;;;4932442;28;20479;-78
2021/08/05 12:33:13;;;;;;;5.18;1.90;;;;;;;;;;4955714;28;20394;-78
2021/08/05 12:35:40;;;;;;;3.78;1.88;;;;;;;;;;4966744;28;20023;-78
2021/08/05 12:38:08;;;;;;;4.30;2.00;;;;;;;;;;4974636;28;20026;-78
2021/08/05 12:40:33;;;;;;;4.13;1.88;;;;;;;;;;4955129;28;20027;-78
2021/08/05 12:43:01;;;;;;;3.08;1.60;;;;;;;;;;4944522;28;20445;-78
2021/08/05 12:45:26;;;;;;;4.18;1.75;;;;;;;;;;4939542;29;20037;-78
2021/08/05 12:47:52;;;;;;;4.50;1.70;;;;;;;;;;4941869;29;20039;-78
2021/08/05 12:50:17;;;;;;;4.10;1.73;;;;;;;;;;4943145;28;20066;-78
2021/08/05 12:52:42;;;;;;;4.37;1.77;;;;;;;;;;4926114;29;20043;-78
2021/08/05 12:55:08;;;;;;;3.60;1.60;;;;;;;;;;4958677;28;20066;-77
2021/08/05 12:57:38;;;;;;;3.27;1.57;;;;;;;;;;4960476;28;20034;-78
2021/08/05 13:00:06;;;;;;;3.88;1.80;;;;;;;;;;4937555;29;20067;-77
2021/08/05 13:02:31;;;;;;;3.53;1.60;;;;;;;;;;4939764;29;20031;-77
2021/08/05 13:05:07;;;;;;;3.70;1.70;;;;;;;;;;4972791;28;20030;-77
2021/08/05 13:07:40;;;;;;;4.07;1.70;;;;;;;;;;4965963;28;20034;-78
2021/08/05 13:10:06;;;;;;;3.17;1.70;;;;;;;;;;4927417;29;20428;-78
2021/08/05 13:12:32;;;;;;;4.40;1.97;;;;;;;;;;4940525;29;20063;-77
2021/08/05 13:15:02;;;;;;;4.28;1.88;;;;;;;;;;4949579;28;20131;-77
2021/08/05 13:17:34;;;;;;;4.32;1.80;;;;;;;;;;4931210;28;20441;-78
2021/08/05 13:20:03;;;;;;;3.95;1.70;;;;;;;;;;4944583;28;20473;-78
2021/08/05 13:22:41;;;;;;;3.90;1.77;;;;;;;;;;4944298;28;20030;-77
2021/08/05 13:25:38;;;;;;;5.38;2.25;;;;;;;;;;4956022;28;20110;-77
2021/08/05 13:28:14;;;;;;;5.38;2.17;;;;;;;;;;4933634;28;20475;-78
2021/08/05 13:30:44;;;;;;;6.93;2.10;;;;;;;;;;4952961;29;20564;-79
2021/08/05 13:33:25;;;;;;;4.43;1.88;;;;;;;;;;4926656;29;20027;-79
2021/08/05 13:35:52;;;;;;;4.45;1.85;;;;;;;;;;4936765;28;20443;-79
2021/08/05 13:38:17;;;;;;;5.03;1.90;;;;;;;;;;4922073;29;20037;-78
2021/08/05 13:40:42;;;;;;;4.10;2.07;;;;;;;;;;4926497;29;20110;-78
2021/08/05 13:43:11;;;;;;;3.87;1.83;;;;;;;;;;4949987;29;20129;-79
2021/08/05 13:45:36;;;;;;;3.50;1.63;;;;;;;;;;4936043;29;20483;-80
2021/08/05 13:48:01;;;;;;;3.73;1.63;;;;;;;;;;4941701;28;20041;-77
2021/08/05 13:50:29;;;;;;;3.27;1.57;;;;;;;;;;4941025;28;20094;-77
2021/08/05 13:52:55;;;;;;;3.13;1.55;;;;;;;;;;4941852;28;20030;-77
2021/08/05 13:55:21;;;;;;;6.38;2.28;;;;;;;;;;4935264;29;20031;-77
2021/08/05 13:57:47;;;;;;;4.75;1.92;;;;;;;;;;4942328;28;20114;-77
2021/08/05 14:00:12;;;;;;;4.63;2.00;;;;;;;;;;4957218;28;20471;-76
2021/08/05 14:02:41;;;;;;;5.88;2.28;;;;;;;;;;4957721;28;20023;-77
2021/08/05 14:05:07;;;;;;;6.30;2.30;;;;;;;;;;4935737;28;20454;-77
2021/08/05 14:07:33;;;;;;;7.00;2.38;;;;;;;;;;4955584;28;20085;-76
2021/08/05 14:09:58;;;;;;;5.90;2.30;;;;;;;;;;4927376;29;20038;-76
2021/08/05 14:12:24;;;;;;;5.07;2.20;;;;;;;;;;4938978;29;20399;-77
2021/08/05 14:14:51;;;;;;;8.03;2.40;;;;;;;;;;4922014;29;20082;-76
2021/08/05 14:17:16;;;;;;;5.13;2.08;;;;;;;;;;4938796;29;20063;-77
2021/08/05 14:19:42;;;;;;;6.47;2.53;;;;;;;;;;4937977;29;20061;-75
2021/08/05 14:22:07;;;;;;;5.37;2.40;;;;;;;;;;4949607;29;20038;-77
2021/08/05 14:24:33;;;;;;;7.23;2.43;;;;;;;;;;4937735;29;20027;-77
2021/08/05 14:26:58;;;;;;;6.47;2.23;;;;;;;;;;4937845;29;20138;-77
2021/08/05 14:29:23;;;;;;;7.07;2.30;;;;;;;;;;4937549;28;20053;-77
2021/08/05 14:31:49;;;;;;;4.13;2.10;;;;;;;;;;4942420;28;20027;-76
2021/08/05 14:34:14;;;;;;;8.23;2.40;;;;;;;;;;4960814;28;20058;-77
2021/08/05 14:36:39;;;;;;;6.97;2.87;;;;;;;;;;4948048;29;20054;-77
2021/08/05 14:39:05;;;;;;;7.13;2.73;;;;;;;;;;4939723;28;20030;-77
2021/08/05 14:41:33;;;;;;;6.13;2.60;;;;;;;;;;4976136;28;20035;-76
2021/08/05 14:43:59;;;;;;;6.25;2.53;;;;;;;;;;4957962;28;20051;-76
2021/08/05 14:46:25;;;;;;;4.93;2.20;;;;;;;;;;4959631;28;20054;-77